createdAt,value
2022-08-31T00:01:05.958Z,17.61
2022-08-31T00:06:09.317Z,17.60
2022-08-31T00:11:14.445Z,17.60
2022-08-31T00:16:17.610Z,17.59
2022-08-31T00:21:23.237Z,17.52
2022-08-31T00:26:27.700Z,17.52
2022-08-31T00:31:30.576Z,17.45
2022-08-31T00:36:33.492Z,17.38
2022-08-31T00:41:39.373Z,17.36
2022-08-31T00:46:44.587Z,17.42
2022-08-31T00:51:52.827Z,17.41
2022-08-31T00:56:58.057Z,17.42
2022-08-31T01:02:00.984Z,17.43
2022-08-31T01:07:07.363Z,17.47
2022-08-31T01:12:13.197Z,17.38
2022-08-31T01:17:17.684Z,17.30
2022-08-31T01:22:27.832Z,17.24
2022-08-31T01:27:36.365Z,17.12
2022-08-31T01:32:39.756Z,17.15
2022-08-31T01:37:42.548Z,17.18
2022-08-31T01:42:47.418Z,17.19
2022-08-31T01:47:50.177Z,17.15
2022-08-31T01:52:53.082Z,17.06
2022-08-31T01:57:58.066Z,17.08
2022-08-31T02:03:03.181Z,17.07
2022-08-31T02:08:08.363Z,17.08
2022-08-31T02:13:13.013Z,17.14
2022-08-31T02:18:15.570Z,17.13
2022-08-31T02:23:21.430Z,17.03
2022-08-31T02:28:26.013Z,16.89
2022-08-31T02:33:28.825Z,16.80
2022-08-31T02:38:35.157Z,16.81
2022-08-31T02:43:39.469Z,16.77
2022-08-31T02:48:42.209Z,16.81
2022-08-31T02:53:45.500Z,16.86
2022-08-31T02:58:54.678Z,16.93
2022-08-31T03:03:58.518Z,16.83
2022-08-31T03:09:01.307Z,16.82
2022-08-31T03:14:05.575Z,16.89
2022-08-31T03:19:09.079Z,16.93
2022-08-31T03:24:11.855Z,16.90
2022-08-31T03:29:16.012Z,16.86
2022-08-31T03:34:18.763Z,16.91
2022-08-31T03:39:21.531Z,16.92
2022-08-31T03:44:25.653Z,16.77
2022-08-31T03:49:28.370Z,16.78
2022-08-31T03:54:31.510Z,16.81
2022-08-31T03:59:35.676Z,16.86
2022-08-31T04:04:38.455Z,16.81
2022-08-31T04:09:41.208Z,16.76
2022-08-31T04:14:45.442Z,16.75
2022-08-31T04:19:48.174Z,16.76
2022-08-31T04:24:51.001Z,16.74
2022-08-31T04:29:55.133Z,16.73
2022-08-31T04:34:58.071Z,16.63
2022-08-31T04:40:01.466Z,16.49
2022-08-31T04:45:07.250Z,16.44
2022-08-31T04:50:11.330Z,16.44
2022-08-31T04:55:14.580Z,16.45
2022-08-31T05:00:19.030Z,16.45
2022-08-31T05:05:21.944Z,16.48
2022-08-31T05:10:24.772Z,16.55
2022-08-31T05:15:28.949Z,16.54
2022-08-31T05:20:31.714Z,16.55
2022-08-31T05:25:34.708Z,16.55
2022-08-31T05:30:38.915Z,16.47
2022-08-31T05:35:41.701Z,16.39
2022-08-31T05:40:44.543Z,16.20
2022-08-31T05:45:48.704Z,16.25
2022-08-31T05:50:51.792Z,16.19
2022-08-31T05:56:00.356Z,16.20
2022-08-31T06:01:05.109Z,16.19
2022-08-31T06:06:09.664Z,16.24
2022-08-31T06:11:17.629Z,16.32
2022-08-31T06:16:22.267Z,16.41
2022-08-31T06:21:26.203Z,16.50
2022-08-31T06:26:30.779Z,16.51
2022-08-31T06:31:37.967Z,16.55
2022-08-31T06:36:41.046Z,16.61
2022-08-31T06:41:45.343Z,16.68
2022-08-31T06:46:49.686Z,16.72
2022-08-31T06:51:52.636Z,16.81
2022-08-31T06:56:55.461Z,16.90
2022-08-31T07:02:00.937Z,16.98
2022-08-31T07:07:05.736Z,17.10
2022-08-31T07:12:08.713Z,17.22
2022-08-31T07:17:12.913Z,17.26
2022-08-31T07:22:15.725Z,17.37
2022-08-31T07:27:18.636Z,17.48
2022-08-31T07:32:22.926Z,17.57
2022-08-31T07:37:42.924Z,17.71
2022-08-31T07:42:46.841Z,17.82
2022-08-31T07:47:51.709Z,17.87
2022-08-31T07:52:55.597Z,17.99
2022-08-31T07:57:59.041Z,18.00
2022-08-31T08:03:07.375Z,18.05
2022-08-31T08:08:13.851Z,18.09
2022-08-31T08:13:19.608Z,18.18
2022-08-31T08:18:23.839Z,18.30
2022-08-31T08:23:28.539Z,18.44
2022-08-31T08:28:40.844Z,18.47
2022-08-31T08:33:46.493Z,18.61
2022-08-31T08:38:51.793Z,18.77
2022-08-31T08:43:57.294Z,18.83
2022-08-31T08:49:10.493Z,18.90
2022-08-31T08:54:15.839Z,18.98
2022-08-31T08:59:20.237Z,19.09
2022-08-31T09:04:41.213Z,19.24
2022-08-31T09:09:49.733Z,19.43
2022-08-31T09:15:36.483Z,19.53
2022-08-31T09:20:41.337Z,19.56
2022-08-31T09:25:52.427Z,19.72
2022-08-31T09:30:56.092Z,19.93
2022-08-31T09:41:35.641Z,20.33
2022-08-31T09:46:39.322Z,20.45
2022-08-31T09:51:42.087Z,20.52
2022-08-31T09:56:58.392Z,20.55
2022-08-31T10:02:02.555Z,20.71
2022-08-31T10:07:30.786Z,20.83
2022-08-31T10:12:39.747Z,20.99
2022-08-31T10:17:49.019Z,20.92
2022-08-31T10:22:57.737Z,21.08
2022-08-31T10:28:08.419Z,21.36
2022-08-31T10:33:15.740Z,21.60
2022-08-31T10:38:26.142Z,21.81
2022-08-31T10:43:34.597Z,22.06
2022-08-31T10:48:41.106Z,22.22
2022-08-31T10:53:53.629Z,22.34
2022-08-31T10:59:14.118Z,22.50
2022-08-31T11:04:39.902Z,22.75
2022-08-31T11:09:50.033Z,23.08
2022-08-31T11:15:29.449Z,23.37
2022-08-31T11:20:52.091Z,23.60
2022-08-31T11:26:45.189Z,24.11
2022-08-31T11:31:51.012Z,24.54
2022-08-31T11:36:55.629Z,24.75
2022-08-31T11:41:59.166Z,25.00
2022-08-31T11:47:08.290Z,25.10
2022-08-31T11:52:38.687Z,25.15
2022-08-31T11:58:33.641Z,25.05
2022-08-31T12:03:53.776Z,25.03
2022-08-31T12:09:18.201Z,24.72
2022-08-31T12:14:33.186Z,24.28
2022-08-31T12:20:01.742Z,24.38
2022-08-31T12:25:14.216Z,24.47
2022-08-31T12:30:20.718Z,24.48
2022-08-31T12:35:26.209Z,24.56
2022-08-31T12:40:30.562Z,24.74
2022-08-31T12:46:08.769Z,24.94
2022-08-31T12:51:21.748Z,25.23
2022-08-31T12:56:31.753Z,25.50
2022-08-31T13:01:42.582Z,25.17
2022-08-31T13:06:48.348Z,25.09
2022-08-31T13:11:53.810Z,24.85
2022-08-31T13:17:04.318Z,24.81
2022-08-31T13:22:17.063Z,25.00
2022-08-31T13:27:21.725Z,25.14
2022-08-31T13:32:33.643Z,25.32
2022-08-31T13:37:40.506Z,25.42
2022-08-31T13:42:45.647Z,25.60
2022-08-31T13:47:57.223Z,25.37
2022-08-31T13:53:26.001Z,25.59
2022-08-31T13:58:29.529Z,25.92
2022-08-31T14:03:34.940Z,25.77
2022-08-31T14:08:39.257Z,25.35
2022-08-31T14:13:49.107Z,24.74
2022-08-31T14:18:55.955Z,24.50
2022-08-31T14:24:04.038Z,24.29
2022-08-31T14:29:10.499Z,24.17
2022-08-31T14:34:26.985Z,24.35
2022-08-31T14:39:32.672Z,24.54
2022-08-31T14:44:39.261Z,24.69
2022-08-31T14:49:45.450Z,24.66
2022-08-31T14:54:49.752Z,25.25
2022-08-31T14:59:56.859Z,25.97
2022-08-31T15:05:06.272Z,26.51
2022-08-31T15:10:12.764Z,26.90
2022-08-31T15:15:20.764Z,27.40
2022-08-31T15:20:23.968Z,27.92
2022-08-31T15:25:28.802Z,28.18
2022-08-31T15:30:33.785Z,28.05
2022-08-31T15:35:41.811Z,28.12
2022-08-31T15:40:46.480Z,27.95
2022-08-31T15:45:49.355Z,27.94
2022-08-31T15:51:00.188Z,28.01
2022-08-31T15:56:06.593Z,28.27
2022-08-31T16:01:14.133Z,28.64
2022-08-31T16:06:16.983Z,28.59
2022-08-31T16:11:21.098Z,28.34
2022-08-31T16:16:23.858Z,28.51
2022-08-31T16:21:28.848Z,28.22
2022-08-31T16:26:35.925Z,27.14
2022-08-31T16:31:38.969Z,26.69
2022-08-31T16:36:42.829Z,26.09
2022-08-31T16:41:47.386Z,25.46
2022-08-31T16:46:50.209Z,25.30
2022-08-31T16:51:53.071Z,25.67
2022-08-31T16:56:57.871Z,26.35
2022-08-31T17:02:00.809Z,26.47
2022-08-31T17:14:46.778Z,24.72
2022-08-31T17:19:52.217Z,24.07
2022-08-31T17:24:57.723Z,23.74
2022-08-31T17:30:05.819Z,23.46
2022-08-31T17:35:09.596Z,23.23
2022-08-31T17:40:14.269Z,22.94
2022-08-31T17:45:21.211Z,22.69
2022-08-31T17:50:23.969Z,22.48
2022-08-31T17:55:26.727Z,22.38
2022-08-31T18:00:32.604Z,22.10
2022-08-31T18:05:35.415Z,21.91
2022-08-31T18:10:38.889Z,21.65
2022-08-31T18:15:43.553Z,21.54
2022-08-31T18:20:46.312Z,21.43
2022-08-31T18:25:49.770Z,21.39
2022-08-31T18:30:53.876Z,21.28
2022-08-31T18:35:56.725Z,21.12
2022-08-31T18:41:20.987Z,20.99
2022-08-31T18:46:26.734Z,20.83
2022-08-31T18:51:29.805Z,20.73
2022-08-31T18:56:33.259Z,20.57
2022-08-31T19:01:37.770Z,20.45
2022-08-31T19:06:42.316Z,20.35
2022-08-31T19:11:51.111Z,20.26
2022-08-31T19:17:01.282Z,20.20
2022-08-31T19:22:06.884Z,20.18
2022-08-31T19:27:10.607Z,20.17
2022-08-31T19:32:14.858Z,20.12
2022-08-31T19:37:17.914Z,20.06
2022-08-31T19:42:39.732Z,20.03
2022-08-31T19:47:46.712Z,20.05
2022-08-31T19:52:51.829Z,19.96
2022-08-31T19:57:54.708Z,19.83
2022-08-31T20:02:59.649Z,19.82
2022-08-31T20:08:02.541Z,19.79
2022-08-31T20:13:06.109Z,19.75
2022-08-31T20:18:12.584Z,19.83
2022-08-31T20:23:17.295Z,19.83
2022-08-31T20:28:21.680Z,19.73
2022-08-31T20:33:26.470Z,19.60
2022-08-31T20:38:39.365Z,19.49
2022-08-31T20:43:44.608Z,19.43
2022-08-31T20:49:06.250Z,19.36
2022-08-31T20:54:09.342Z,19.27
2022-08-31T20:59:12.105Z,19.18
2022-08-31T21:04:16.242Z,19.18
2022-08-31T21:09:19.577Z,19.12
2022-08-31T21:14:22.771Z,19.01
2022-08-31T21:19:26.932Z,18.91
2022-08-31T21:24:29.805Z,18.89
2022-08-31T21:29:33.730Z,18.83
2022-08-31T21:34:39.119Z,18.72
2022-08-31T21:39:42.819Z,18.66
2022-08-31T21:44:45.667Z,18.56
2022-08-31T21:49:53.522Z,18.46
2022-08-31T21:54:56.405Z,18.36
2022-08-31T21:59:59.599Z,18.22
2022-08-31T22:05:08.577Z,18.16
2022-08-31T22:10:12.133Z,18.09
2022-08-31T22:15:16.705Z,18.06
2022-08-31T22:20:22.163Z,18.01
2022-08-31T22:25:24.740Z,17.96
2022-08-31T22:30:27.790Z,17.92
2022-08-31T22:35:31.953Z,17.78
2022-08-31T22:40:39.386Z,17.56
2022-08-31T22:45:48.210Z,17.36
2022-08-31T22:50:52.727Z,17.31
2022-08-31T22:55:55.460Z,17.25
2022-08-31T23:00:58.226Z,17.21
2022-08-31T23:06:02.404Z,17.10
2022-08-31T23:11:05.489Z,17.00
2022-08-31T23:16:09.352Z,17.03
2022-08-31T23:21:13.567Z,17.06
2022-08-31T23:26:16.346Z,17.08
2022-08-31T23:31:20.129Z,17.07
2022-08-31T23:36:29.451Z,16.97
2022-08-31T23:41:38.901Z,16.76
2022-08-31T23:46:43.284Z,16.60
2022-08-31T23:51:47.662Z,16.56
2022-08-31T23:56:55.626Z,16.54
